Time;durP1;ratioP1;P1;durP2;ratioP2;P2;SDS_P1;SDS_P2;PMS_P1;PMS_P2;Temp;Humidity;BMP_temperature;BMP_pressure;BME280_temperature;BME280_humidity;BME280_pressure;Samples;Min_cycle;Max_cycle;Signal;HPM_P1;HPM_P2
2023/08/25 00:02:05;;;;;;;2.70;1.83;;;21.40;98.00;;;;;;5037747;28;20538;-67
2023/08/25 00:04:32;;;;;;;7.63;2.30;;;21.30;98.00;;;;;;5037888;28;20450;-68
2023/08/25 00:06:59;;;;;;;2.50;2.00;;;21.30;98.00;;;;;;5037723;28;20450;-68
2023/08/25 00:09:28;;;;;;;3.60;1.93;;;21.30;98.00;;;;;;5037670;28;20461;-68
2023/08/25 00:11:55;;;;;;;3.10;2.07;;;21.30;98.00;;;;;;5037672;28;20461;-68
2023/08/25 00:14:22;;;;;;;4.17;2.27;;;21.40;98.00;;;;;;5037585;28;20450;-68
2023/08/25 00:16:49;;;;;;;3.00;2.17;;;21.40;98.00;;;;;;5037601;28;20446;-67
2023/08/25 00:19:17;;;;;;;6.43;2.30;;;21.40;98.00;;;;;;5037499;28;20458;-68
2023/08/25 00:21:46;;;;;;;3.03;2.10;;;21.40;98.00;;;;;;5037709;28;20466;-67
2023/08/25 00:24:13;;;;;;;2.40;2.20;;;21.30;98.00;;;;;;5037590;28;20482;-68
2023/08/25 00:26:42;;;;;;;2.80;2.17;;;21.20;98.00;;;;;;5037818;28;20453;-67
2023/08/25 00:29:09;;;;;;;3.53;2.10;;;21.20;98.00;;;;;;5037707;28;20462;-68
2023/08/25 00:31:37;;;;;;;8.00;2.40;;;21.10;98.00;;;;;;5034597;28;20501;-68
2023/08/25 00:34:04;;;;;;;4.23;2.30;;;21.00;98.00;;;;;;5034624;28;20508;-67
2023/08/25 00:36:32;;;;;;;4.33;2.43;;;21.00;98.00;;;;;;5034611;28;20467;-68
2023/08/25 00:38:59;;;;;;;3.93;2.20;;;21.10;98.00;;;;;;5034479;28;20493;-68
2023/08/25 00:41:26;;;;;;;3.13;2.07;;;21.20;98.00;;;;;;5034416;28;20965;-68
2023/08/25 00:43:54;;;;;;;4.00;2.00;;;21.20;98.00;;;;;;5034624;28;20462;-67
2023/08/25 00:46:22;;;;;;;5.67;2.50;;;21.30;98.00;;;;;;5034452;28;20813;-68
2023/08/25 00:48:50;;;;;;;4.30;2.67;;;21.20;98.00;;;;;;5034093;28;20459;-67
2023/08/25 00:51:18;;;;;;;3.30;2.40;;;21.40;98.00;;;;;;5034375;28;20454;-68
2023/08/25 00:53:46;;;;;;;3.83;2.60;;;21.30;98.00;;;;;;5034473;28;20528;-68
2023/08/25 00:56:14;;;;;;;3.70;2.30;;;21.30;98.00;;;;;;5033845;28;20482;-68
2023/08/25 00:58:41;;;;;;;3.13;2.10;;;21.20;98.00;;;;;;5033839;28;20486;-67
2023/08/25 01:01:10;;;;;;;5.27;2.60;;;21.20;98.00;;;;;;5033670;28;21152;-68
2023/08/25 01:03:39;;;;;;;4.17;2.37;;;21.10;98.00;;;;;;5033844;28;20508;-68
2023/08/25 01:06:08;;;;;;;3.83;2.50;;;21.20;98.00;;;;;;5033736;28;20446;-67
2023/08/25 01:08:35;;;;;;;6.93;2.80;;;21.10;98.00;;;;;;5033690;28;20451;-67
2023/08/25 01:11:16;;;;;;;2.70;2.40;;;21.00;98.00;;;;;;5033901;28;20482;-68
2023/08/25 01:13:53;;;;;;;4.10;2.43;;;20.90;98.00;;;;;;5033822;28;20455;-68
2023/08/25 01:16:26;;;;;;;3.30;2.43;;;20.90;98.00;;;;;;5033693;28;20465;-68
2023/08/25 01:18:54;;;;;;;3.80;2.40;;;20.90;98.00;;;;;;5033502;28;20874;-68
2023/08/25 01:21:23;;;;;;;3.03;2.27;;;21.00;98.00;;;;;;5033602;28;20451;-67
2023/08/25 01:24:00;;;;;;;4.57;2.60;;;20.90;98.00;;;;;;5033637;28;20455;-68
2023/08/25 01:26:30;;;;;;;5.93;2.77;;;20.90;98.00;;;;;;5033560;28;20457;-68
2023/08/25 01:28:57;;;;;;;4.07;2.77;;;20.90;98.00;;;;;;5033657;28;20494;-68
2023/08/25 01:31:24;;;;;;;4.50;2.70;;;20.90;98.00;;;;;;5033636;28;20462;-67
2023/08/25 01:33:53;;;;;;;4.10;2.50;;;20.80;98.00;;;;;;5033654;28;20460;-67
2023/08/25 01:36:37;;;;;;;3.70;2.67;;;20.80;98.00;;;;;;5033482;28;20478;-68
2023/08/25 01:39:07;;;;;;;5.60;2.90;;;20.80;98.00;;;;;;5033713;28;20541;-67
2023/08/25 01:41:43;;;;;;;4.33;2.70;;;20.80;98.00;;;;;;5033052;28;20462;-67
2023/08/25 01:44:13;;;;;;;3.67;2.63;;;20.80;98.00;;;;;;5033649;28;20463;-67
2023/08/25 01:46:43;;;;;;;4.00;2.70;;;20.70;98.00;;;;;;5033238;28;20869;-68
2023/08/25 01:49:11;;;;;;;3.03;2.37;;;20.80;98.00;;;;;;5032704;28;20470;-67
2023/08/25 01:51:39;;;;;;;4.43;2.73;;;20.90;98.00;;;;;;5032808;28;20455;-67
2023/08/25 01:54:06;;;;;;;4.30;2.70;;;20.90;98.00;;;;;;5032881;28;20457;-67
2023/08/25 01:56:35;;;;;;;4.20;2.67;;;20.80;98.00;;;;;;5032789;28;20455;-67
2023/08/25 01:59:02;;;;;;;5.73;2.47;;;20.80;98.00;;;;;;5032881;28;20487;-68
2023/08/25 02:01:30;;;;;;;5.53;3.03;;;20.80;98.00;;;;;;5032637;28;20454;-68
2023/08/25 02:03:57;;;;;;;5.00;2.70;;;20.70;98.00;;;;;;5032737;28;20447;-67
2023/08/25 02:06:25;;;;;;;6.73;3.27;;;20.70;98.00;;;;;;5032597;28;20455;-67
2023/08/25 02:08:52;;;;;;;4.93;2.77;;;20.80;98.00;;;;;;5032559;28;20462;-68
2023/08/25 02:11:20;;;;;;;5.30;2.77;;;21.00;98.00;;;;;;5032495;28;20454;-68
2023/08/25 02:13:48;;;;;;;5.23;2.67;;;20.90;98.00;;;;;;5032596;28;20454;-67
2023/08/25 02:16:15;;;;;;;5.00;2.90;;;20.90;98.00;;;;;;5032581;28;20478;-68
2023/08/25 02:18:42;;;;;;;7.17;3.00;;;20.80;98.00;;;;;;5032397;28;20521;-67
2023/08/25 02:21:09;;;;;;;4.37;2.50;;;20.80;98.00;;;;;;5032569;28;20850;-68
2023/08/25 02:23:36;;;;;;;5.13;2.53;;;20.80;98.00;;;;;;5032592;28;20451;-68
2023/08/25 02:26:03;;;;;;;5.50;3.00;;;21.00;98.00;;;;;;5032555;28;20454;-67
2023/08/25 02:28:30;;;;;;;6.03;3.10;;;21.00;98.00;;;;;;5032508;28;20855;-67
2023/08/25 02:30:59;;;;;;;7.30;2.93;;;20.90;98.00;;;;;;5032491;28;20455;-68
2023/08/25 02:33:26;;;;;;;4.10;2.97;;;20.90;98.00;;;;;;5032455;28;20575;-67
2023/08/25 02:35:53;;;;;;;8.53;2.67;;;20.80;98.00;;;;;;5032355;28;20453;-67
2023/08/25 02:38:20;;;;;;;4.30;2.80;;;20.70;98.00;;;;;;5032286;28;21000;-67
2023/08/25 02:40:49;;;;;;;9.33;2.90;;;20.70;98.00;;;;;;5032361;28;20459;-68
2023/08/25 02:43:17;;;;;;;3.50;2.70;;;20.90;98.00;;;;;;5031964;28;20966;-68
2023/08/25 02:45:44;;;;;;;5.10;3.00;;;20.90;98.00;;;;;;5032019;28;20455;-67
2023/08/25 02:48:12;;;;;;;3.70;2.77;;;20.70;98.00;;;;;;5031998;28;20458;-68
2023/08/25 02:50:39;;;;;;;3.53;2.43;;;20.80;98.00;;;;;;5031848;28;20458;-68
2023/08/25 02:53:06;;;;;;;3.70;2.73;;;20.80;98.00;;;;;;5031952;28;21030;-68
2023/08/25 02:55:34;;;;;;;3.30;2.60;;;20.80;98.00;;;;;;5031435;28;20450;-68
2023/08/25 02:58:01;;;;;;;5.37;2.63;;;20.70;98.00;;;;;;5031742;28;20475;-67
2023/08/25 03:00:28;;;;;;;6.60;2.60;;;20.50;98.00;;;;;;5031920;28;20446;-68
2023/08/25 03:02:55;;;;;;;4.40;2.73;;;20.50;98.00;;;;;;5031928;28;20447;-67
2023/08/25 03:05:24;;;;;;;9.03;4.73;;;20.40;98.00;;;;;;5032019;28;20455;-67
2023/08/25 03:07:52;;;;;;;7.90;3.90;;;20.40;98.00;;;;;;5031645;28;20447;-67
2023/08/25 03:10:19;;;;;;;4.73;2.90;;;20.40;98.00;;;;;;5031763;28;20446;-67
2023/08/25 03:12:46;;;;;;;5.90;2.70;;;20.60;98.00;;;;;;5031531;28;20450;-67
2023/08/25 03:15:13;;;;;;;4.20;2.67;;;20.70;98.00;;;;;;5031868;28;20458;-67
2023/08/25 03:17:42;;;;;;;4.60;2.70;;;20.90;98.00;;;;;;5031762;28;20455;-67
2023/08/25 03:20:12;;;;;;;3.20;2.53;;;20.90;98.00;;;;;;5031548;28;20467;-67
2023/08/25 03:22:40;;;;;;;8.00;2.90;;;20.70;98.00;;;;;;5031570;28;20498;-67
2023/08/25 03:25:08;;;;;;;5.23;3.10;;;20.70;98.00;;;;;;5031645;28;20542;-68
2023/08/25 03:27:36;;;;;;;8.77;3.30;;;20.50;98.00;;;;;;5031447;28;20867;-67
2023/08/25 03:30:04;;;;;;;9.13;3.33;;;20.40;98.00;;;;;;5032048;28;20450;-67
2023/08/25 03:32:31;;;;;;;10.20;2.90;;;20.30;98.00;;;;;;5031725;28;20469;-68
2023/08/25 03:34:58;;;;;;;4.23;2.70;;;20.30;98.00;;;;;;5031705;28;20450;-67
2023/08/25 03:37:25;;;;;;;7.10;2.80;;;20.40;98.00;;;;;;5031033;28;20447;-67
2023/08/25 03:39:54;;;;;;;4.57;2.80;;;20.40;98.00;;;;;;5031167;28;20513;-67
2023/08/25 03:42:21;;;;;;;8.00;3.20;;;20.20;98.00;;;;;;5031221;28;20975;-67
2023/08/25 03:44:48;;;;;;;4.37;2.83;;;20.30;98.00;;;;;;5031335;28;20454;-67
2023/08/25 03:47:15;;;;;;;6.00;3.20;;;20.30;98.00;;;;;;5031062;28;21014;-68
2023/08/25 03:49:42;;;;;;;7.60;3.00;;;20.30;98.00;;;;;;5031421;28;20462;-67
2023/08/25 03:52:11;;;;;;;4.70;2.70;;;20.40;98.00;;;;;;5031308;28;20467;-67
2023/08/25 03:54:38;;;;;;;6.03;3.03;;;20.40;98.00;;;;;;5031273;28;20463;-67
2023/08/25 03:57:08;;;;;;;6.63;3.00;;;20.40;98.00;;;;;;5031125;28;20463;-68
2023/08/25 03:59:35;;;;;;;5.23;3.23;;;20.40;98.00;;;;;;5031087;28;20512;-67
2023/08/25 04:02:03;;;;;;;4.80;3.17;;;20.20;98.00;;;;;;5031278;28;20457;-67
2023/08/25 04:04:31;;;;;;;4.50;2.40;;;20.10;98.00;;;;;;5029857;28;20548;-67
2023/08/25 04:07:16;;;;;;;4.17;2.63;;;20.10;98.00;;;;;;5033283;28;21085;-67
2023/08/25 04:10:04;;;;;;;3.57;2.90;;;20.10;98.00;;;;;;5034951;28;20450;-67
2023/08/25 04:12:32;;;;;;;4.60;2.87;;;20.00;98.00;;;;;;5034847;28;20533;-67
2023/08/25 04:14:59;;;;;;;4.50;2.70;;;20.10;98.00;;;;;;5034861;28;20462;-67
2023/08/25 04:17:27;;;;;;;9.07;3.10;;;20.10;98.00;;;;;;5034864;28;20466;-67
2023/08/25 04:19:54;;;;;;;3.53;2.70;;;20.00;98.00;;;;;;5034740;28;20563;-67
2023/08/25 04:22:21;;;;;;;5.47;2.87;;;20.20;98.00;;;;;;5034703;28;20504;-67
2023/08/25 04:24:48;;;;;;;3.73;2.70;;;20.30;98.00;;;;;;5244613;22;20497;-67
2023/08/25 04:27:15;;;;;;;5.10;3.23;;;20.10;98.00;;;;;;5054143;28;20449;-67
2023/08/25 04:29:44;;;;;;;5.67;3.50;;;20.00;98.00;;;;;;5054396;28;20452;-67
2023/08/25 04:32:11;;;;;;;4.53;2.77;;;19.90;98.00;;;;;;5054456;28;20592;-67
2023/08/25 04:34:38;;;;;;;4.33;2.77;;;20.00;98.00;;;;;;5054404;28;20808;-67
2023/08/25 04:37:05;;;;;;;4.57;2.87;;;19.90;98.00;;;;;;5054399;28;20551;-67
2023/08/25 04:39:32;;;;;;;4.00;2.70;;;20.00;98.00;;;;;;5054158;28;21185;-67
2023/08/25 04:42:00;;;;;;;4.00;2.63;;;20.00;98.00;;;;;;5054171;28;20449;-67
2023/08/25 04:44:27;;;;;;;4.17;2.90;;;20.00;98.00;;;;;;5054184;28;20553;-67
2023/08/25 04:46:55;;;;;;;6.33;3.10;;;20.00;98.00;;;;;;5054213;28;20450;-67
2023/08/25 04:49:22;;;;;;;5.10;3.07;;;20.00;98.00;;;;;;5054026;28;20456;-67
2023/08/25 04:51:50;;;;;;;5.00;2.90;;;19.80;98.00;;;;;;5054160;28;20879;-67
2023/08/25 04:54:17;;;;;;;2.83;2.30;;;19.80;98.00;;;;;;5053888;28;20485;-67
2023/08/25 04:56:45;;;;;;;4.93;3.00;;;19.80;98.00;;;;;;5054016;28;20454;-67
2023/08/25 04:59:12;;;;;;;4.67;2.70;;;19.90;98.00;;;;;;5053449;28;20485;-67
2023/08/25 05:01:40;;;;;;;6.40;3.10;;;19.90;98.00;;;;;;5053916;28;20450;-67
2023/08/25 05:04:11;;;;;;;9.70;2.70;;;19.80;98.00;;;;;;5053834;28;20450;-67
2023/08/25 05:06:38;;;;;;;6.20;2.60;;;19.90;98.00;;;;;;5053867;28;20457;-67
2023/08/25 05:09:05;;;;;;;6.90;3.00;;;20.00;98.00;;;;;;5053725;28;20446;-67
2023/08/25 05:11:33;;;;;;;5.07;2.83;;;20.10;98.00;;;;;;5053731;28;20447;-67
2023/08/25 05:14:01;;;;;;;8.83;3.17;;;20.10;98.00;;;;;;5053966;28;20449;-67
2023/08/25 05:16:28;;;;;;;7.50;2.73;;;20.00;98.00;;;;;;5053616;28;20460;-67
2023/08/25 05:18:55;;;;;;;3.83;2.70;;;19.90;98.00;;;;;;5053397;28;21085;-67
2023/08/25 05:21:24;;;;;;;5.90;3.07;;;19.90;98.00;;;;;;5052052;28;20955;-67
2023/08/25 05:24:11;;;;;;;9.93;2.83;;;19.90;98.00;;;;;;5053205;28;20458;-67
2023/08/25 05:26:38;;;;;;;4.93;3.00;;;19.90;98.00;;;;;;5052247;28;20482;-67
2023/08/25 05:29:05;;;;;;;6.60;3.00;;;19.90;98.00;;;;;;5053435;28;20456;-67
2023/08/25 05:31:33;;;;;;;2.63;2.17;;;19.80;98.00;;;;;;5051609;28;20442;-67
2023/08/25 05:34:02;;;;;;;4.70;3.07;;;19.90;98.00;;;;;;5053212;28;20465;-67
2023/08/25 05:36:30;;;;;;;5.50;3.03;;;20.10;98.00;;;;;;5035701;28;20465;-67
2023/08/25 05:38:57;;;;;;;4.77;3.13;;;20.10;98.00;;;;;;5053251;28;20505;-67
2023/08/25 05:41:24;;;;;;;3.73;2.80;;;20.10;98.00;;;;;;5053288;28;20974;-67
2023/08/25 05:43:52;;;;;;;6.80;3.00;;;20.20;98.00;;;;;;5053349;28;20461;-67
2023/08/25 05:46:19;;;;;;;4.80;3.03;;;20.20;98.00;;;;;;5053110;28;20793;-67
2023/08/25 05:48:46;;;;;;;7.00;3.53;;;20.30;98.00;;;;;;5053083;28;20454;-67
2023/08/25 05:51:13;;;;;;;4.80;3.23;;;20.50;98.00;;;;;;5052977;28;20795;-67
2023/08/25 05:53:42;;;;;;;6.50;3.00;;;20.70;98.00;;;;;;5052642;28;20465;-67
2023/08/25 05:56:09;;;;;;;8.10;2.97;;;20.60;98.00;;;;;;5052984;28;20450;-67
2023/08/25 05:58:36;;;;;;;5.10;3.07;;;20.70;98.00;;;;;;5053008;28;20457;-67
2023/08/25 06:01:04;;;;;;;4.73;3.03;;;20.90;98.00;;;;;;5053021;28;20446;-67
2023/08/25 06:03:32;;;;;;;4.00;2.87;;;21.10;98.00;;;;;;5053010;28;20512;-67
2023/08/25 06:05:59;;;;;;;4.90;3.40;;;21.10;98.00;;;;;;5053052;28;21017;-67
2023/08/25 06:08:26;;;;;;;5.50;3.37;;;21.10;98.00;;;;;;5052924;28;20504;-67
2023/08/25 06:10:54;;;;;;;4.37;3.10;;;21.30;98.00;;;;;;5053202;28;20515;-67
2023/08/25 06:13:22;;;;;;;4.97;3.30;;;21.40;98.00;;;;;;5052568;28;20454;-67
2023/08/25 06:15:49;;;;;;;4.70;3.23;;;21.30;98.00;;;;;;5051029;28;20450;-67
2023/08/25 06:18:17;;;;;;;6.20;3.47;;;21.40;98.00;;;;;;5052487;28;20488;-67
2023/08/25 06:20:44;;;;;;;6.40;3.00;;;21.30;98.00;;;;;;5052460;28;20489;-67
2023/08/25 06:23:13;;;;;;;4.60;2.93;;;21.30;98.00;;;;;;5052181;28;20442;-64
2023/08/25 06:25:40;;;;;;;9.97;3.43;;;21.40;98.00;;;;;;5052568;28;20540;-64
2023/08/25 06:28:08;;;;;;;4.43;3.13;;;21.40;98.00;;;;;;5051818;28;20446;-64
2023/08/25 06:30:36;;;;;;;5.23;3.30;;;21.40;98.00;;;;;;5052002;28;20453;-64
2023/08/25 06:33:03;;;;;;;5.83;3.07;;;21.30;98.00;;;;;;5052225;28;20565;-64
2023/08/25 06:35:31;;;;;;;7.30;3.77;;;21.40;98.00;;;;;;5052305;28;20446;-64
2023/08/25 06:37:58;;;;;;;5.83;3.20;;;21.40;98.00;;;;;;5052185;28;20644;-65
2023/08/25 06:40:25;;;;;;;7.17;3.67;;;21.30;98.00;;;;;;5050970;28;20492;-64
2023/08/25 06:42:52;;;;;;;5.10;3.70;;;21.20;98.00;;;;;;5052004;28;20453;-64
2023/08/25 06:45:21;;;;;;;5.67;3.20;;;21.20;98.00;;;;;;5052031;28;20456;-64
2023/08/25 06:47:52;;;;;;;7.33;4.00;;;21.30;98.00;;;;;;5052120;28;20525;-64
2023/08/25 06:50:19;;;;;;;6.60;3.60;;;21.30;98.00;;;;;;5052079;28;20900;-64
2023/08/25 06:52:46;;;;;;;5.17;3.40;;;21.40;98.00;;;;;;5052182;28;20484;-64
2023/08/25 06:55:13;;;;;;;10.03;3.40;;;21.50;98.00;;;;;;5052030;28;20449;-64
2023/08/25 06:57:40;;;;;;;6.40;3.30;;;21.60;98.00;;;;;;5051832;28;20519;-64
2023/08/25 07:00:09;;;;;;;6.37;3.67;;;21.60;98.00;;;;;;5052000;28;20481;-65
2023/08/25 07:02:39;;;;;;;5.33;3.70;;;21.60;98.00;;;;;;5051859;28;20889;-64
2023/08/25 07:05:06;;;;;;;5.20;3.27;;;21.60;98.00;;;;;;5051740;28;20496;-65
2023/08/25 07:07:35;;;;;;;6.30;3.40;;;21.70;98.00;;;;;;5051574;28;20496;-64
2023/08/25 07:10:02;;;;;;;5.70;3.60;;;21.80;98.00;;;;;;5051650;28;20442;-65
2023/08/25 07:12:29;;;;;;;9.97;3.60;;;21.70;98.00;;;;;;5050154;28;20454;-64
2023/08/25 07:14:56;;;;;;;5.30;3.40;;;21.70;98.00;;;;;;5051600;28;20977;-65
2023/08/25 07:17:24;;;;;;;7.50;3.60;;;21.60;98.00;;;;;;5050973;28;20446;-65
2023/08/25 07:19:53;;;;;;;7.10;3.67;;;21.60;98.00;;;;;;5051342;28;20485;-65
2023/08/25 07:22:20;;;;;;;6.43;3.60;;;21.70;98.00;;;;;;5051173;28;20478;-64
2023/08/25 07:24:50;;;;;;;5.40;3.43;;;21.70;98.00;;;;;;5051228;28;20469;-65
2023/08/25 07:27:17;;;;;;;5.80;3.77;;;21.80;98.00;;;;;;5051351;28;20450;-65
2023/08/25 07:29:44;;;;;;;6.93;3.80;;;21.90;98.00;;;;;;5051661;28;20545;-64
2023/08/25 07:32:12;;;;;;;8.30;3.73;;;21.90;98.00;;;;;;5050153;28;20845;-65
2023/08/25 07:34:45;;;;;;;5.00;3.40;;;21.90;98.00;;;;;;5051212;28;20464;-64
2023/08/25 07:37:14;;;;;;;6.43;3.67;;;21.90;98.00;;;;;;5051449;28;20544;-64
2023/08/25 07:39:41;;;;;;;5.70;3.80;;;22.00;98.00;;;;;;5051528;28;21010;-65
2023/08/25 07:42:09;;;;;;;10.40;4.20;;;21.90;98.00;;;;;;5055540;28;20446;-64
2023/08/25 07:44:38;;;;;;;6.27;3.87;;;21.90;98.00;;;;;;5055781;28;20990;-64
2023/08/25 07:47:12;;;;;;;5.27;3.70;;;21.90;98.00;;;;;;5055756;28;20540;-65
2023/08/25 07:49:39;;;;;;;5.97;4.13;;;21.90;98.00;;;;;;5055212;28;20464;-65
2023/08/25 07:52:06;;;;;;;6.33;3.70;;;21.90;98.00;;;;;;5053141;28;20441;-65
2023/08/25 07:54:34;;;;;;;5.20;3.50;;;21.90;98.00;;;;;;5053702;28;20523;-65
2023/08/25 07:57:02;;;;;;;7.87;4.20;;;21.80;98.00;;;;;;5055147;28;20453;-65
2023/08/25 07:59:29;;;;;;;5.97;3.43;;;21.80;98.00;;;;;;5055769;28;20504;-64
2023/08/25 08:01:56;;;;;;;5.87;3.70;;;21.80;98.00;;;;;;5055828;28;20450;-64
2023/08/25 08:04:24;;;;;;;6.33;3.40;;;21.70;98.00;;;;;;5055805;28;20450;-64
2023/08/25 08:06:51;;;;;;;7.40;3.80;;;21.60;98.00;;;;;;5054896;28;20545;-64
2023/08/25 08:09:18;;;;;;;6.20;3.70;;;21.70;98.00;;;;;;5054444;28;20943;-64
2023/08/25 08:11:47;;;;;;;5.47;3.30;;;21.60;98.00;;;;;;5055397;28;20457;-64
2023/08/25 08:14:14;;;;;;;6.23;3.53;;;21.50;98.00;;;;;;5055419;28;20457;-64
2023/08/25 08:16:41;;;;;;;5.37;3.63;;;21.60;98.00;;;;;;5054905;28;20454;-64
2023/08/25 08:19:08;;;;;;;5.77;3.60;;;21.50;98.00;;;;;;5054974;28;20460;-64
2023/08/25 08:21:36;;;;;;;5.80;3.53;;;21.60;98.00;;;;;;5054157;28;20860;-64
2023/08/25 08:24:03;;;;;;;7.80;3.57;;;21.60;98.00;;;;;;5052991;28;20464;-64
2023/08/25 08:26:30;;;;;;;6.47;3.57;;;21.60;98.00;;;;;;5053961;28;20586;-64
2023/08/25 08:28:59;;;;;;;5.97;3.60;;;21.50;98.00;;;;;;5054128;28;20450;-64
2023/08/25 08:31:26;;;;;;;5.07;3.30;;;21.40;98.00;;;;;;5053565;28;20445;-64
2023/08/25 08:33:53;;;;;;;4.37;2.93;;;21.40;98.00;;;;;;5054218;28;20508;-64
2023/08/25 08:36:20;;;;;;;5.70;3.13;;;21.40;98.00;;;;;;5053981;28;20454;-64
2023/08/25 08:38:47;;;;;;;5.40;3.30;;;21.40;98.00;;;;;;5053956;28;20457;-64
2023/08/25 08:41:16;;;;;;;10.70;2.80;;;21.40;98.00;;;;;;5053329;28;20489;-64
2023/08/25 08:43:46;;;;;;;5.37;3.20;;;21.30;98.00;;;;;;5052481;28;20500;-64
2023/08/25 08:46:19;;;;;;;4.53;2.80;;;21.30;98.00;;;;;;5053579;28;20450;-64
2023/08/25 08:48:47;;;;;;;3.67;2.63;;;21.30;98.00;;;;;;5053576;28;21037;-64
2023/08/25 08:51:17;;;;;;;3.90;2.70;;;21.30;98.00;;;;;;5053093;28;20450;-64
2023/08/25 08:53:47;;;;;;;5.70;2.97;;;21.40;98.00;;;;;;5053412;28;20466;-63
2023/08/25 08:56:15;;;;;;;5.37;2.90;;;21.50;98.00;;;;;;5053499;28;20450;-64
2023/08/25 08:58:43;;;;;;;5.40;3.10;;;21.60;98.00;;;;;;5053879;28;20468;-64
2023/08/25 09:01:11;;;;;;;5.27;3.27;;;21.60;98.00;;;;;;5052229;28;20478;-64
2023/08/25 09:03:40;;;;;;;5.00;3.00;;;21.80;98.00;;;;;;5053659;28;20810;-64
2023/08/25 09:06:07;;;;;;;13.50;3.63;;;21.70;98.00;;;;;;5053337;28;20507;-64
2023/08/25 09:08:47;;;;;;;5.53;3.73;;;21.60;98.00;;;;;;5053076;28;20956;-64
2023/08/25 09:11:17;;;;;;;6.07;3.50;;;21.50;98.00;;;;;;5053356;28;20454;-64
2023/08/25 09:13:54;;;;;;;4.67;3.03;;;21.40;98.00;;;;;;5053510;28;20534;-64
2023/08/25 09:16:23;;;;;;;6.00;3.90;;;21.40;98.00;;;;;;5053729;28;20537;-64
2023/08/25 09:18:52;;;;;;;4.33;3.07;;;21.50;98.00;;;;;;5053663;28;20542;-64
2023/08/25 09:21:22;;;;;;;3.70;2.80;;;21.60;98.00;;;;;;5053469;28;20485;-64
2023/08/25 09:23:53;;;;;;;5.00;3.23;;;21.60;98.00;;;;;;5052541;28;20468;-64
2023/08/25 09:26:21;;;;;;;6.93;3.30;;;21.80;98.00;;;;;;5052704;28;20477;-64
2023/08/25 09:28:48;;;;;;;6.00;3.20;;;22.00;98.00;;;;;;5053348;28;20458;-64
2023/08/25 09:31:25;;;;;;;5.67;3.37;;;22.20;98.00;;;;;;5053352;28;20827;-64
2023/08/25 09:34:02;;;;;;;6.03;3.20;;;22.40;98.00;;;;;;5053071;28;20454;-64
2023/08/25 09:36:30;;;;;;;5.23;3.40;;;22.50;98.00;;;;;;5053365;28;20923;-64
2023/08/25 09:38:57;;;;;;;6.50;3.50;;;22.60;98.00;;;;;;5053049;28;20872;-64
2023/08/25 09:41:28;;;;;;;4.30;2.87;;;22.90;98.00;;;;;;5053201;28;20482;-64
2023/08/25 09:43:59;;;;;;;5.00;3.37;;;23.10;98.00;;;;;;5051997;28;20461;-64
2023/08/25 09:46:31;;;;;;;4.47;3.20;;;23.40;98.00;;;;;;5053333;28;20462;-64
2023/08/25 09:49:03;;;;;;;4.37;3.33;;;23.50;98.00;;;;;;5053268;28;20458;-64
2023/08/25 09:51:37;;;;;;;5.70;3.20;;;23.60;98.00;;;;;;5035643;28;20511;-64
2023/08/25 09:54:07;;;;;;;7.17;3.60;;;23.60;98.00;;;;;;5053183;28;20452;-64
2023/08/25 09:56:36;;;;;;;5.27;3.17;;;23.60;98.00;;;;;;5053105;28;20952;-64
2023/08/25 09:59:04;;;;;;;6.67;3.40;;;23.60;98.00;;;;;;5051543;28;20450;-64
2023/08/25 10:01:31;;;;;;;5.13;3.37;;;23.60;98.00;;;;;;5052708;28;20485;-64
2023/08/25 10:03:59;;;;;;;5.90;3.60;;;23.70;98.00;;;;;;5052748;28;20461;-65
2023/08/25 10:06:30;;;;;;;6.50;3.43;;;23.80;98.00;;;;;;5052759;28;20516;-65
2023/08/25 10:08:59;;;;;;;5.23;3.40;;;23.90;98.00;;;;;;5052778;28;20488;-65
2023/08/25 10:11:29;;;;;;;5.63;3.50;;;24.10;98.00;;;;;;5052580;28;20527;-65
2023/08/25 10:13:57;;;;;;;5.10;3.70;;;24.30;98.00;;;;;;5052577;28;20462;-65
2023/08/25 10:16:26;;;;;;;5.60;4.03;;;24.60;98.00;;;;;;5052814;28;20525;-65
2023/08/25 10:18:57;;;;;;;6.73;3.40;;;24.60;98.00;;;;;;5052589;28;20536;-65
2023/08/25 10:21:26;;;;;;;4.33;2.87;;;25.00;98.00;;;;;;5052329;28;20572;-65
2023/08/25 10:23:56;;;;;;;5.00;3.17;;;25.10;98.00;;;;;;5050988;28;20484;-65
2023/08/25 10:26:24;;;;;;;4.90;3.20;;;25.20;98.00;;;;;;5052301;28;20837;-64
2023/08/25 10:28:52;;;;;;;6.00;3.30;;;25.20;98.00;;;;;;5052446;28;20453;-64
2023/08/25 10:31:20;;;;;;;7.87;3.77;;;25.10;98.00;;;;;;5052280;28;20458;-64
2023/08/25 10:33:48;;;;;;;4.57;3.27;;;25.10;98.00;;;;;;5052287;28;20446;-65
2023/08/25 10:36:19;;;;;;;5.70;3.40;;;25.10;98.00;;;;;;5052212;28;20462;-65
2023/08/25 10:39:07;;;;;;;4.87;3.00;;;25.00;98.00;;;;;;5052389;28;20548;-65
2023/08/25 10:41:42;;;;;;;4.90;3.10;;;24.90;98.00;;;;;;5052126;28;20572;-65
2023/08/25 10:44:11;;;;;;;5.20;3.40;;;24.90;98.00;;;;;;5051979;28;20481;-65
2023/08/25 10:46:39;;;;;;;3.47;2.70;;;24.90;98.00;;;;;;5052267;28;20458;-61
2023/08/25 10:49:11;;;;;;;4.43;2.70;;;25.00;98.00;;;;;;5052155;28;20489;-64
2023/08/25 10:51:38;;;;;;;4.50;2.93;;;25.00;98.00;;;;;;5052174;28;20564;-65
2023/08/25 10:54:07;;;;;;;4.30;3.03;;;25.00;98.00;;;;;;5051914;28;20442;-65
2023/08/25 10:56:39;;;;;;;4.10;3.03;;;25.00;98.00;;;;;;5051297;28;20469;-65
2023/08/25 10:59:09;;;;;;;3.67;2.60;;;25.10;98.00;;;;;;5051577;28;20481;-64
2023/08/25 11:01:55;;;;;;;3.83;2.90;;;25.10;98.00;;;;;;5050290;28;20543;-64
2023/08/25 11:04:25;;;;;;;4.57;2.83;;;25.20;98.00;;;;;;5051900;28;20666;-64
2023/08/25 11:06:53;;;;;;;3.50;2.73;;;25.20;98.00;;;;;;5051671;28;20493;-64
2023/08/25 11:09:35;;;;;;;5.30;3.00;;;25.30;98.00;;;;;;5051668;28;20457;-64
2023/08/25 11:12:06;;;;;;;4.37;3.03;;;25.30;98.00;;;;;;5051639;28;20446;-64
2023/08/25 11:14:35;;;;;;;4.50;3.03;;;25.30;98.00;;;;;;5051107;28;20454;-65
2023/08/25 11:17:04;;;;;;;9.97;3.70;;;25.40;98.00;;;;;;5051632;28;20485;-65
2023/08/25 11:19:32;;;;;;;4.30;2.83;;;25.60;98.00;;;;;;5051532;28;20540;-65
2023/08/25 11:22:03;;;;;;;3.60;3.00;;;25.80;98.00;;;;;;5051601;28;20478;-65
2023/08/25 11:24:31;;;;;;;3.60;2.70;;;25.90;98.00;;;;;;5051365;28;20464;-65
2023/08/25 11:27:06;;;;;;;3.80;2.77;;;26.00;98.00;;;;;;5051579;28;21091;-65
2023/08/25 11:29:33;;;;;;;4.43;3.00;;;26.10;98.00;;;;;;5051562;28;20883;-65
2023/08/25 11:32:00;;;;;;;5.63;3.10;;;26.20;98.00;;;;;;5051340;28;20825;-65
2023/08/25 11:34:30;;;;;;;5.43;3.13;;;26.20;98.00;;;;;;5049966;28;20515;-65
2023/08/25 11:36:57;;;;;;;5.70;3.30;;;26.30;98.00;;;;;;5050923;28;20519;-65
2023/08/25 11:39:25;;;;;;;4.30;3.20;;;26.30;98.00;;;;;;5050655;28;20454;-65
2023/08/25 11:41:54;;;;;;;4.13;2.77;;;26.30;98.00;;;;;;5048636;28;20473;-65
2023/08/25 11:44:23;;;;;;;5.70;3.07;;;26.30;98.00;;;;;;5050189;28;20442;-65
2023/08/25 11:46:53;;;;;;;3.87;2.90;;;26.30;98.00;;;;;;5050803;28;20442;-65
2023/08/25 11:49:21;;;;;;;5.93;4.67;;;26.30;98.00;;;;;;5050963;28;20453;-65
2023/08/25 11:51:49;;;;;;;4.60;3.33;;;26.40;98.00;;;;;;5049516;28;20449;-65
2023/08/25 11:54:17;;;;;;;5.03;3.17;;;26.50;98.00;;;;;;5050883;28;20476;-65
2023/08/25 11:56:50;;;;;;;3.97;3.13;;;26.60;98.00;;;;;;5050721;28;20500;-65
2023/08/25 11:59:18;;;;;;;6.73;3.20;;;26.70;98.00;;;;;;5050745;28;20461;-66
2023/08/25 12:01:50;;;;;;;4.67;3.00;;;26.70;98.00;;;;;;5050707;28;21006;-65
2023/08/25 12:04:21;;;;;;;4.90;2.93;;;26.60;98.00;;;;;;5050740;28;20676;-66
2023/08/25 12:06:50;;;;;;;4.10;2.93;;;26.60;98.00;;;;;;5050705;28;20503;-66
2023/08/25 12:09:18;;;;;;;4.13;2.70;;;26.60;98.00;;;;;;5050723;28;20446;-65
2023/08/25 12:11:45;;;;;;;4.53;3.30;;;26.60;98.00;;;;;;5050778;28;20450;-66
2023/08/25 12:14:25;;;;;;;5.07;3.30;;;26.60;98.00;;;;;;5049297;28;20952;-66
2023/08/25 12:16:55;;;;;;;4.20;2.90;;;26.70;98.00;;;;;;5050561;28;20438;-65
2023/08/25 12:19:24;;;;;;;8.97;3.47;;;26.70;98.00;;;;;;5050620;28;21092;-66
2023/08/25 12:21:53;;;;;;;6.07;3.80;;;26.80;98.00;;;;;;5050459;28;21124;-66
2023/08/25 12:24:20;;;;;;;4.93;3.27;;;26.90;98.00;;;;;;5050426;28;20675;-66
2023/08/25 12:26:48;;;;;;;4.77;3.47;;;27.00;98.00;;;;;;5050597;28;20456;-66
2023/08/25 12:29:16;;;;;;;4.50;3.20;;;27.10;98.00;;;;;;5054184;28;20544;-66
2023/08/25 12:31:43;;;;;;;5.20;3.20;;;27.10;98.00;;;;;;5054387;28;20449;-65
2023/08/25 12:34:12;;;;;;;4.53;3.30;;;27.10;98.00;;;;;;5053955;28;20979;-65
2023/08/25 12:36:40;;;;;;;4.60;3.50;;;27.10;98.00;;;;;;5053370;28;20454;-65
2023/08/25 12:39:07;;;;;;;8.47;4.57;;;27.00;98.00;;;;;;5054126;28;20453;-64
2023/08/25 12:41:34;;;;;;;4.33;3.30;;;26.90;98.00;;;;;;5054210;28;20481;-65
2023/08/25 12:44:01;;;;;;;4.00;2.93;;;26.80;98.00;;;;;;5054065;28;20454;-65
2023/08/25 12:46:28;;;;;;;5.60;3.47;;;26.80;98.00;;;;;;5053820;28;20480;-65
2023/08/25 12:48:55;;;;;;;7.63;3.60;;;26.70;98.00;;;;;;5053779;28;20464;-65
2023/08/25 12:51:23;;;;;;;5.43;3.70;;;26.60;98.00;;;;;;5053674;28;20454;-65
2023/08/25 12:53:51;;;;;;;7.20;3.80;;;26.50;98.00;;;;;;5053547;28;20453;-65